createdAt,value
2022-12-01T00:00:54.624Z,84.50
2022-12-01T00:03:44.335Z,84.70
2022-12-01T00:06:25.005Z,79.10
2022-12-01T00:09:16.445Z,79.95
2022-12-01T00:11:48.632Z,81.25
2022-12-01T00:14:16.627Z,87.90
2022-12-01T00:16:44.759Z,82.50
2022-12-01T00:19:11.797Z,77.07
2022-12-01T00:21:38.923Z,76.10
2022-12-01T00:24:07.468Z,88.72
2022-12-01T00:26:34.431Z,139.57
2022-12-01T00:29:21.382Z,108.90
2022-12-01T00:32:22.451Z,127.47
2022-12-01T00:35:23.462Z,187.25
2022-12-01T00:38:24.329Z,140.55
2022-12-01T00:40:57.233Z,145.50
2022-12-01T00:43:44.375Z,236.40
2022-12-01T00:46:25.133Z,219.35
2022-12-01T00:48:52.187Z,119.13
2022-12-01T00:51:19.348Z,160.63
2022-12-01T00:53:46.356Z,109.50
2022-12-01T00:56:13.520Z,154.30
2022-12-01T00:58:48.137Z,137.50
2022-12-01T01:01:15.405Z,220.48
2022-12-01T01:04:05.381Z,118.38
2022-12-01T01:06:46.423Z,201.85
2022-12-01T01:09:34.606Z,180.80
2022-12-01T01:12:15.011Z,129.38
2022-12-01T01:14:42.110Z,158.65
2022-12-01T01:17:10.143Z,171.00
2022-12-01T01:19:37.728Z,74.85
2022-12-01T01:22:04.877Z,166.00
2022-12-01T01:24:41.121Z,169.45
2022-12-01T01:27:38.411Z,185.00
2022-12-01T01:30:12.678Z,229.40
2022-12-01T01:33:39.355Z,108.40
2022-12-01T01:36:41.451Z,138.25
2022-12-01T01:39:42.411Z,135.88
2022-12-01T01:42:23.421Z,102.30
2022-12-01T01:44:58.988Z,140.60
2022-12-01T01:47:36.951Z,124.28
2022-12-01T01:50:11.033Z,175.10
2022-12-01T01:52:43.720Z,102.70
2022-12-01T01:55:11.861Z,176.25
2022-12-01T01:57:39.352Z,150.15
2022-12-01T02:00:15.432Z,133.82
2022-12-01T02:03:04.438Z,148.43
2022-12-01T02:05:46.272Z,150.57
2022-12-01T02:08:13.497Z,179.27
2022-12-01T02:11:09.844Z,180.20
2022-12-01T02:14:00.071Z,175.52
2022-12-01T02:17:02.202Z,161.07
2022-12-01T02:19:54.193Z,229.25
2022-12-01T02:23:19.751Z,137.07
2022-12-01T02:25:51.893Z,158.48
2022-12-01T02:29:18.005Z,197.93
2022-12-01T02:32:34.225Z,179.15
2022-12-01T02:35:41.300Z,201.95
2022-12-01T02:38:39.688Z,287.50
2022-12-01T02:41:20.801Z,208.60
2022-12-01T02:44:02.551Z,263.85
2022-12-01T02:46:34.299Z,112.43
2022-12-01T02:49:08.085Z,183.60
2022-12-01T02:51:39.831Z,217.68
2022-12-01T02:54:07.443Z,218.50
2022-12-01T02:56:58.433Z,134.55
2022-12-01T03:00:06.481Z,201.15
2022-12-01T03:03:13.591Z,239.77
2022-12-01T03:06:02.179Z,247.77
2022-12-01T03:08:46.148Z,180.38
2022-12-01T03:11:43.424Z,171.40
2022-12-01T03:14:39.635Z,214.15
2022-12-01T03:17:19.800Z,185.48
2022-12-01T03:19:54.008Z,149.52
2022-12-01T03:22:33.067Z,196.63
2022-12-01T03:25:04.021Z,196.63
2022-12-01T03:27:37.252Z,215.65
2022-12-01T03:30:11.127Z,225.52
2022-12-01T03:33:05.093Z,178.52
2022-12-01T03:35:54.300Z,220.20
2022-12-01T03:38:26.499Z,250.50
2022-12-01T03:41:01.678Z,197.38
2022-12-01T03:43:44.011Z,211.07
2022-12-01T03:46:41.487Z,219.90
2022-12-01T03:52:43.214Z,191.90
2022-12-01T03:55:42.920Z,189.80
2022-12-01T03:58:59.513Z,250.25
2022-12-01T04:02:55.640Z,183.05
2022-12-01T04:07:00.629Z,196.95
2022-12-01T04:13:46.400Z,224.93
2022-12-01T04:16:40.456Z,206.82
2022-12-01T04:19:42.485Z,189.07
2022-12-01T04:22:41.950Z,210.90
2022-12-01T04:25:10.001Z,190.38
2022-12-01T04:28:07.695Z,267.92
2022-12-01T04:35:40.658Z,273.13
2022-12-01T04:38:41.114Z,141.07
2022-12-01T04:41:49.207Z,145.35
2022-12-01T04:44:42.199Z,279.80
2022-12-01T04:47:49.494Z,174.27
2022-12-01T04:51:00.352Z,153.02
2022-12-01T04:53:42.706Z,112.55
2022-12-01T04:56:46.884Z,116.30
2022-12-01T04:59:39.365Z,92.10
2022-12-01T05:02:14.413Z,122.22
2022-12-01T05:05:42.779Z,104.97
2022-12-01T05:08:56.962Z,90.45
2022-12-01T05:11:38.884Z,179.27
2022-12-01T05:14:19.887Z,151.45
2022-12-01T05:17:00.165Z,108.32
2022-12-01T05:19:55.173Z,139.48
2022-12-01T05:23:05.268Z,175.38
2022-12-01T05:26:44.867Z,138.23
2022-12-01T05:29:40.370Z,145.25
2022-12-01T05:32:59.135Z,130.57
2022-12-01T05:35:39.260Z,152.98
2022-12-01T05:38:40.675Z,147.50
2022-12-01T05:41:49.626Z,114.43
2022-12-01T05:44:39.447Z,160.20
2022-12-01T05:47:55.015Z,206.35
2022-12-01T05:51:41.676Z,171.90
2022-12-01T05:54:45.803Z,158.52
2022-12-01T05:57:40.697Z,166.98
2022-12-01T06:04:01.801Z,146.77
2022-12-01T06:07:53.727Z,293.05
2022-12-01T06:10:37.531Z,208.40
2022-12-01T06:13:43.879Z,170.38
2022-12-01T06:16:53.696Z,136.60
2022-12-01T06:23:09.919Z,181.32
2022-12-01T06:25:57.543Z,131.70
2022-12-01T06:28:39.186Z,136.88
2022-12-01T06:31:27.703Z,107.95
2022-12-01T06:34:09.323Z,179.25
2022-12-01T06:36:37.499Z,94.28
2022-12-01T06:39:11.689Z,106.80
2022-12-01T06:41:40.258Z,112.97
2022-12-01T06:44:40.481Z,216.18
2022-12-01T06:47:08.342Z,111.13
2022-12-01T06:49:37.513Z,114.40
2022-12-01T06:52:07.183Z,103.85
2022-12-01T06:54:47.711Z,96.20
2022-12-01T06:57:30.085Z,141.65
2022-12-01T06:59:58.435Z,151.18
2022-12-01T07:06:01.468Z,152.50
2022-12-01T07:09:50.287Z,113.40
2022-12-01T07:16:55.958Z,128.68
2022-12-01T07:20:54.302Z,117.32
2022-12-01T07:23:53.512Z,107.10
2022-12-01T07:26:51.863Z,99.97
2022-12-01T07:34:01.374Z,102.53
2022-12-01T07:37:45.078Z,115.53
2022-12-01T07:40:12.767Z,210.65
2022-12-01T07:42:48.679Z,105.88
2022-12-01T07:46:00.243Z,154.45
2022-12-01T07:52:54.470Z,78.25
2022-12-01T07:56:08.423Z,116.22
2022-12-01T07:59:43.083Z,118.78
2022-12-01T08:03:01.182Z,125.75
2022-12-01T08:10:56.931Z,125.57
2022-12-01T08:18:57.227Z,95.18
2022-12-01T08:22:50.858Z,96.90
2022-12-01T08:25:52.360Z,88.65
2022-12-01T08:40:56.495Z,119.63
2022-12-01T08:51:33.097Z,97.10
2022-12-01T08:54:33.995Z,78.13
2022-12-01T08:57:35.858Z,84.15
2022-12-01T09:00:04.420Z,83.47
2022-12-01T09:02:45.708Z,80.78
2022-12-01T09:05:46.996Z,89.53
2022-12-01T09:08:41.851Z,77.18
2022-12-01T09:11:24.238Z,81.97
2022-12-01T09:14:41.958Z,79.65
2022-12-01T09:17:49.449Z,70.95
2022-12-01T09:24:47.295Z,69.93
2022-12-01T09:27:54.619Z,68.25
2022-12-01T09:31:56.857Z,64.40
2022-12-01T09:35:12.087Z,72.45
2022-12-01T09:37:52.530Z,73.60
2022-12-01T09:40:21.771Z,68.10
2022-12-01T09:42:49.403Z,71.75
2022-12-01T09:45:29.766Z,72.47
2022-12-01T09:47:59.897Z,68.45
2022-12-01T09:50:31.378Z,75.25
2022-12-01T09:53:09.268Z,76.55
2022-12-01T09:55:38.241Z,82.65
2022-12-01T09:58:15.523Z,82.13
2022-12-01T10:00:50.727Z,69.55
2022-12-01T10:11:02.846Z,74.97
2022-12-01T10:14:03.191Z,82.55
2022-12-01T10:16:56.188Z,73.95
2022-12-01T10:19:50.736Z,77.57
2022-12-01T10:25:41.383Z,77.80
2022-12-01T10:28:39.988Z,87.35
2022-12-01T10:31:57.893Z,82.63
2022-12-01T10:35:38.970Z,82.38
2022-12-01T10:38:45.254Z,83.97
2022-12-01T10:41:58.832Z,92.35
2022-12-01T10:44:53.358Z,85.13
2022-12-01T10:48:40.026Z,79.75
2022-12-01T10:51:59.329Z,84.15
2022-12-01T10:54:41.432Z,80.70
2022-12-01T10:57:18.085Z,84.22
2022-12-01T11:01:39.472Z,89.72
2022-12-01T11:04:57.730Z,80.93
2022-12-01T11:08:05.051Z,85.78
2022-12-01T11:10:34.843Z,86.15
2022-12-01T11:13:07.448Z,81.25
2022-12-01T11:15:40.385Z,82.93
2022-12-01T11:18:23.288Z,73.63
2022-12-01T11:21:28.655Z,88.03
2022-12-01T11:23:56.492Z,81.35
2022-12-01T11:26:45.173Z,81.20
2022-12-01T11:29:42.293Z,86.88
2022-12-01T11:32:48.719Z,81.60
2022-12-01T11:36:14.653Z,78.75
2022-12-01T11:39:43.359Z,81.57
2022-12-01T11:42:19.641Z,87.72
2022-12-01T11:45:39.586Z,86.68
2022-12-01T11:48:27.308Z,91.72
2022-12-01T11:51:32.624Z,94.70
2022-12-01T11:54:15.640Z,84.20
2022-12-01T11:56:45.043Z,83.20
2022-12-01T11:59:29.204Z,83.40
2022-12-01T12:05:40.863Z,80.20
2022-12-01T12:08:49.010Z,89.88
2022-12-01T12:12:17.879Z,79.03
2022-12-01T12:15:38.044Z,75.10
2022-12-01T12:18:21.869Z,73.70
2022-12-01T12:21:06.867Z,78.53
2022-12-01T12:24:04.743Z,76.07
2022-12-01T12:26:49.648Z,76.80
2022-12-01T12:29:55.334Z,70.30
2022-12-01T12:32:51.702Z,78.20
2022-12-01T12:35:40.399Z,77.15
2022-12-01T12:38:55.977Z,73.28
2022-12-01T12:41:42.004Z,69.20
2022-12-01T12:44:37.091Z,61.60
2022-12-01T12:47:55.693Z,76.35
2022-12-01T12:50:42.353Z,75.20
2022-12-01T12:53:24.323Z,76.35
2022-12-01T12:55:58.067Z,74.15
2022-12-01T12:58:39.884Z,71.53
2022-12-01T13:01:34.923Z,77.32
2022-12-01T13:04:44.758Z,73.72
2022-12-01T13:08:00.888Z,68.20
2022-12-01T13:10:43.358Z,73.97
2022-12-01T13:13:20.508Z,72.00
2022-12-01T13:15:51.451Z,72.97
2022-12-01T13:18:50.595Z,71.60
2022-12-01T13:21:20.885Z,71.60
2022-12-01T13:24:10.507Z,78.45
2022-12-01T13:26:44.254Z,72.65
2022-12-01T13:29:28.803Z,72.97
2022-12-01T13:32:49.823Z,68.35
2022-12-01T13:35:44.124Z,69.35
2022-12-01T13:38:41.772Z,79.88
2022-12-01T13:41:50.794Z,70.55
2022-12-01T13:44:38.726Z,70.30
2022-12-01T13:47:26.511Z,70.88
2022-12-01T13:50:55.742Z,70.35
2022-12-01T13:54:41.633Z,68.45
2022-12-01T13:57:28.601Z,71.78
2022-12-01T13:59:59.009Z,60.80
2022-12-01T14:02:48.914Z,73.65
2022-12-01T14:05:55.792Z,67.97
2022-12-01T14:08:46.211Z,64.85
2022-12-01T14:11:37.353Z,63.65
2022-12-01T14:14:39.831Z,68.77
2022-12-01T14:17:36.456Z,67.32
2022-12-01T14:20:25.595Z,67.40
2022-12-01T14:23:20.137Z,75.25
2022-12-01T14:26:12.272Z,70.03
2022-12-01T14:29:01.702Z,75.72
2022-12-01T14:31:35.249Z,77.72
2022-12-01T14:34:18.911Z,74.88
2022-12-01T14:37:15.785Z,78.45
2022-12-01T14:40:23.418Z,80.70
2022-12-01T14:43:23.791Z,82.88
2022-12-01T14:46:20.787Z,80.32
2022-12-01T14:49:36.838Z,78.85
2022-12-01T14:52:41.826Z,80.80
2022-12-01T14:55:56.906Z,75.45
2022-12-01T14:58:38.336Z,84.10
2022-12-01T15:01:28.404Z,96.10
2022-12-01T15:04:29.092Z,96.85
2022-12-01T15:07:36.520Z,89.97
2022-12-01T15:10:21.561Z,94.35
2022-12-01T15:12:50.319Z,91.60
2022-12-01T15:15:40.073Z,86.80
2022-12-01T15:18:44.800Z,91.03
2022-12-01T15:24:41.127Z,78.10
2022-12-01T15:27:33.707Z,80.13
2022-12-01T15:30:04.933Z,84.90
2022-12-01T15:32:38.005Z,92.95
2022-12-01T15:35:08.026Z,85.50
2022-12-01T15:37:44.609Z,90.53
2022-12-01T15:41:00.123Z,87.93
2022-12-01T15:43:34.220Z,94.63
2022-12-01T15:46:17.712Z,87.25
2022-12-01T15:49:20.793Z,87.80
2022-12-01T15:52:10.861Z,104.85
2022-12-01T15:54:40.053Z,104.18
2022-12-01T15:57:35.769Z,105.28
2022-12-01T16:00:25.887Z,103.45
2022-12-01T16:03:13.870Z,115.55
2022-12-01T16:06:15.042Z,129.35
2022-12-01T16:09:04.916Z,110.10
2022-12-01T16:11:33.799Z,111.35
2022-12-01T16:14:21.492Z,104.15
2022-12-01T16:16:50.536Z,111.53
2022-12-01T16:19:18.147Z,99.95
2022-12-01T16:22:44.750Z,99.53
2022-12-01T16:25:46.781Z,92.03
2022-12-01T16:28:47.799Z,111.25
2022-12-01T16:34:53.599Z,94.97
2022-12-01T16:37:23.684Z,111.32
2022-12-01T16:39:51.157Z,104.85
2022-12-01T16:42:50.966Z,105.20
2022-12-01T16:45:53.045Z,116.93
2022-12-01T16:48:46.095Z,116.15
2022-12-01T16:51:55.370Z,89.88
2022-12-01T16:54:51.026Z,111.80
2022-12-01T16:57:41.919Z,106.28
2022-12-01T17:00:45.957Z,105.95
2022-12-01T17:03:54.890Z,100.47
2022-12-01T17:06:57.899Z,123.93
2022-12-01T17:10:38.340Z,104.25
2022-12-01T17:13:05.693Z,112.20
2022-12-01T17:15:33.470Z,108.05
2022-12-01T17:18:00.859Z,111.22
2022-12-01T17:20:29.398Z,106.70
2022-12-01T17:23:17.374Z,105.82
2022-12-01T17:26:00.944Z,110.72
2022-12-01T17:28:28.731Z,106.32
2022-12-01T17:31:00.730Z,105.72
2022-12-01T17:33:27.947Z,110.90
2022-12-01T17:35:55.118Z,112.15
2022-12-01T17:38:23.326Z,107.03
2022-12-01T17:41:05.377Z,121.85
2022-12-01T17:43:34.274Z,108.57
2022-12-01T17:46:23.775Z,118.80
2022-12-01T17:49:25.662Z,103.80
2022-12-01T17:52:08.131Z,115.18
2022-12-01T17:54:36.373Z,126.00
2022-12-01T17:57:03.769Z,127.50
2022-12-01T17:59:31.350Z,128.88
2022-12-01T18:02:02.220Z,116.70
2022-12-01T18:04:53.357Z,119.45
2022-12-01T18:07:39.529Z,108.93
2022-12-01T18:10:42.665Z,118.53
2022-12-01T18:13:47.252Z,116.80
2022-12-01T18:16:42.279Z,111.72
2022-12-01T18:19:48.975Z,104.53
2022-12-01T18:22:38.982Z,108.05
2022-12-01T18:25:06.727Z,104.80
2022-12-01T18:27:44.138Z,106.35
2022-12-01T18:30:43.078Z,109.22
2022-12-01T18:33:25.289Z,118.75
2022-12-01T18:36:09.441Z,133.38
2022-12-01T18:39:01.062Z,108.53
2022-12-01T18:41:52.236Z,101.75
2022-12-01T18:44:36.175Z,109.68
2022-12-01T18:47:30.944Z,110.82
2022-12-01T18:49:59.840Z,110.82
2022-12-01T18:52:45.010Z,117.13
2022-12-01T18:55:41.651Z,118.90
2022-12-01T18:58:41.392Z,128.00
2022-12-01T19:01:40.416Z,126.90
2022-12-01T19:04:40.955Z,124.93
2022-12-01T19:07:29.338Z,116.65
2022-12-01T19:10:18.328Z,125.93
2022-12-01T19:12:58.819Z,132.57
2022-12-01T19:15:46.159Z,138.90
2022-12-01T19:18:27.931Z,147.30
2022-12-01T19:20:55.118Z,167.40
2022-12-01T19:23:27.573Z,165.18
2022-12-01T19:26:31.888Z,166.68
2022-12-01T19:31:40.044Z,153.13
2022-12-01T19:34:08.902Z,196.25
2022-12-01T19:36:57.067Z,165.23
2022-12-01T19:39:58.053Z,171.20
2022-12-01T19:42:54.830Z,181.95
2022-12-01T19:45:23.023Z,168.25
2022-12-01T19:48:11.833Z,157.48
2022-12-01T19:50:56.775Z,170.00
2022-12-01T19:53:30.443Z,166.05
2022-12-01T19:56:02.549Z,158.30
2022-12-01T19:58:32.336Z,154.63
2022-12-01T20:01:09.106Z,146.70
2022-12-01T20:03:59.929Z,159.00
2022-12-01T20:06:54.310Z,164.50
2022-12-01T20:09:35.183Z,153.13
2022-12-01T20:12:41.860Z,150.88
2022-12-01T20:15:39.378Z,159.50
2022-12-01T20:18:06.385Z,170.20
2022-12-01T20:20:33.646Z,156.98
2022-12-01T20:23:00.640Z,159.70
2022-12-01T20:25:27.833Z,178.98
2022-12-01T20:27:54.868Z,191.77
2022-12-01T20:30:41.957Z,182.32
2022-12-01T20:33:42.980Z,162.00
2022-12-01T20:36:25.068Z,155.48
2022-12-01T20:39:12.010Z,171.95
2022-12-01T20:42:13.413Z,158.13
2022-12-01T20:44:53.913Z,138.57
2022-12-01T20:47:22.192Z,146.40
2022-12-01T20:49:52.010Z,151.07
2022-12-01T20:52:42.175Z,142.52
2022-12-01T20:55:12.809Z,124.93
2022-12-01T20:57:43.268Z,132.07
2022-12-01T21:00:28.665Z,120.90
2022-12-01T21:03:48.081Z,152.55
2022-12-01T21:06:51.187Z,127.43
2022-12-01T21:09:45.177Z,132.13
2022-12-01T21:12:57.991Z,137.57
2022-12-01T21:16:14.058Z,138.95
2022-12-01T21:18:43.999Z,127.25
2022-12-01T21:21:43.039Z,126.00
2022-12-01T21:24:33.512Z,132.98
2022-12-01T21:27:16.871Z,122.82
2022-12-01T21:30:04.057Z,116.60
2022-12-01T21:32:46.451Z,105.07
2022-12-01T21:35:31.909Z,116.05
2022-12-01T21:38:37.226Z,121.63
2022-12-01T21:41:36.268Z,104.72
2022-12-01T21:44:20.319Z,127.13
2022-12-01T21:46:57.384Z,121.55
2022-12-01T21:49:40.187Z,141.77
2022-12-01T21:52:48.783Z,145.23
2022-12-01T21:55:53.292Z,120.95
2022-12-01T21:58:52.524Z,124.03
2022-12-01T22:01:37.670Z,108.28
2022-12-01T22:04:50.423Z,113.13
2022-12-01T22:07:39.220Z,100.95
2022-12-01T22:10:47.936Z,117.65
2022-12-01T22:13:32.115Z,112.40
2022-12-01T22:16:41.637Z,98.32
2022-12-01T22:19:28.524Z,114.68
2022-12-01T22:22:37.178Z,125.32
2022-12-01T22:25:33.141Z,106.35
2022-12-01T22:28:02.806Z,114.82
2022-12-01T22:34:12.813Z,102.63
2022-12-01T22:36:59.394Z,115.35
2022-12-01T22:39:53.109Z,109.90
2022-12-01T22:42:59.054Z,104.78
2022-12-01T22:45:39.733Z,109.40
2022-12-01T22:48:33.515Z,106.28
2022-12-01T22:51:12.733Z,108.68
2022-12-01T22:53:41.530Z,99.50
2022-12-01T22:56:24.141Z,105.90
2022-12-01T22:58:51.673Z,90.20
2022-12-01T23:01:26.682Z,95.68
2022-12-01T23:04:26.226Z,98.80
2022-12-01T23:07:41.583Z,87.45
2022-12-01T23:10:31.541Z,102.47
2022-12-01T23:13:36.061Z,87.25
2022-12-01T23:16:16.693Z,91.05
2022-12-01T23:19:04.048Z,82.38
2022-12-01T23:22:06.203Z,81.13
2022-12-01T23:24:47.001Z,84.38
2022-12-01T23:27:18.049Z,75.85
2022-12-01T23:30:05.351Z,79.95
2022-12-01T23:32:48.012Z,89.13
2022-12-01T23:35:18.314Z,84.35
2022-12-01T23:38:07.098Z,88.68
2022-12-01T23:41:11.063Z,74.75
2022-12-01T23:43:51.833Z,77.88
2022-12-01T23:46:23.093Z,87.15
2022-12-01T23:48:58.455Z,80.45
2022-12-01T23:51:31.966Z,81.00
2022-12-01T23:54:02.036Z,85.47
2022-12-01T23:56:52.058Z,89.93
2022-12-01T23:59:32.871Z,79.38
